sensor_id;sensor_type;location;lat;lon;timestamp;pressure;altitude;pressure_sealevel;temperature;humidity
59055;BME280;44845;51.444;7.460;2024-03-08T00:01:09;99986.09;;;3.91;65.74
59055;BME280;44845;51.444;7.460;2024-03-08T00:03:34;99977.69;;;4.02;65.72
59055;BME280;44845;51.444;7.460;2024-03-08T00:06:00;99976.63;;;3.92;66.17
59055;BME280;44845;51.444;7.460;2024-03-08T00:08:25;99974.13;;;3.97;66.25
59055;BME280;44845;51.444;7.460;2024-03-08T00:10:50;99979.22;;;3.93;66.37
59055;BME280;44845;51.444;7.460;2024-03-08T00:13:16;99977.22;;;3.80;66.46
59055;BME280;44845;51.444;7.460;2024-03-08T00:15:41;99978.13;;;3.80;66.26
59055;BME280;44845;51.444;7.460;2024-03-08T00:18:07;99976.34;;;3.79;66.20
59055;BME280;44845;51.444;7.460;2024-03-08T00:20:32;99974.47;;;3.74;65.11
59055;BME280;44845;51.444;7.460;2024-03-08T00:22:58;99975.25;;;3.69;65.99
59055;BME280;44845;51.444;7.460;2024-03-08T00:25:23;99965.09;;;3.79;65.41
59055;BME280;44845;51.444;7.460;2024-03-08T00:27:49;99970.44;;;3.85;65.53
59055;BME280;44845;51.444;7.460;2024-03-08T00:30:21;99966.97;;;3.86;64.96
59055;BME280;44845;51.444;7.460;2024-03-08T00:32:48;99965.31;;;3.88;65.31
59055;BME280;44845;51.444;7.460;2024-03-08T00:35:14;99956.66;;;3.88;64.86
59055;BME280;44845;51.444;7.460;2024-03-08T00:37:39;99960.97;;;3.89;65.17
59055;BME280;44845;51.444;7.460;2024-03-08T00:40:05;99957.72;;;3.98;64.79
59055;BME280;44845;51.444;7.460;2024-03-08T00:42:32;99955.66;;;3.81;65.58
59055;BME280;44845;51.444;7.460;2024-03-08T00:44:58;99953.88;;;3.80;65.44
59055;BME280;44845;51.444;7.460;2024-03-08T00:47:24;99950.09;;;3.64;64.31
59055;BME280;44845;51.444;7.460;2024-03-08T00:49:49;99954.44;;;3.66;64.79
59055;BME280;44845;51.444;7.460;2024-03-08T00:52:14;99950.28;;;3.73;64.96
59055;BME280;44845;51.444;7.460;2024-03-08T00:54:40;99951.22;;;3.77;65.19
59055;BME280;44845;51.444;7.460;2024-03-08T00:57:05;99949.31;;;3.69;65.23
59055;BME280;44845;51.444;7.460;2024-03-08T00:59:32;99945.91;;;3.70;65.24
59055;BME280;44845;51.444;7.460;2024-03-08T01:02:01;99943.53;;;3.41;64.21
59055;BME280;44845;51.444;7.460;2024-03-08T01:04:26;99938.41;;;3.44;64.63
59055;BME280;44845;51.444;7.460;2024-03-08T01:06:54;99929.47;;;3.71;63.93
59055;BME280;44845;51.444;7.460;2024-03-08T01:09:22;99936.44;;;3.72;64.11
59055;BME280;44845;51.444;7.460;2024-03-08T01:11:47;99931.31;;;3.76;64.63
59055;BME280;44845;51.444;7.460;2024-03-08T01:14:12;99922.03;;;3.87;64.30
59055;BME280;44845;51.444;7.460;2024-03-08T01:16:38;99919.25;;;3.79;64.90
59055;BME280;44845;51.444;7.460;2024-03-08T01:19:03;99908.78;;;3.73;64.58
59055;BME280;44845;51.444;7.460;2024-03-08T01:21:28;99910.47;;;3.71;65.02
59055;BME280;44845;51.444;7.460;2024-03-08T01:23:54;99906.13;;;3.71;65.28
59055;BME280;44845;51.444;7.460;2024-03-08T01:26:19;99903.72;;;3.39;64.92
59055;BME280;44845;51.444;7.460;2024-03-08T01:28:44;99906.44;;;3.45;64.75
59055;BME280;44845;51.444;7.460;2024-03-08T01:31:10;99902.25;;;3.51;64.69
59055;BME280;44845;51.444;7.460;2024-03-08T01:33:35;99896.78;;;3.38;63.92
59055;BME280;44845;51.444;7.460;2024-03-08T01:36:00;99895.03;;;3.37;64.97
59055;BME280;44845;51.444;7.460;2024-03-08T01:38:26;99889.78;;;3.34;64.84
59055;BME280;44845;51.444;7.460;2024-03-08T01:40:51;99888.09;;;3.36;65.03
59055;BME280;44845;51.444;7.460;2024-03-08T01:45:42;99887.56;;;3.51;64.46
59055;BME280;44845;51.444;7.460;2024-03-08T01:48:07;99874.50;;;3.46;64.50
59055;BME280;44845;51.444;7.460;2024-03-08T01:50:33;99880.06;;;3.25;64.71
59055;BME280;44845;51.444;7.460;2024-03-08T01:52:59;99862.72;;;3.22;65.00
59055;BME280;44845;51.444;7.460;2024-03-08T01:55:25;99867.44;;;3.41;64.58
59055;BME280;44845;51.444;7.460;2024-03-08T01:57:51;99866.59;;;3.42;64.88
59055;BME280;44845;51.444;7.460;2024-03-08T02:00:17;99861.56;;;3.49;63.98
59055;BME280;44845;51.444;7.460;2024-03-08T02:02:47;99859.03;;;3.51;64.08
59055;BME280;44845;51.444;7.460;2024-03-08T02:05:14;99857.38;;;3.55;63.70
59055;BME280;44845;51.444;7.460;2024-03-08T02:07:41;99858.94;;;3.46;64.29
59055;BME280;44845;51.444;7.460;2024-03-08T02:10:09;99852.72;;;3.38;64.45
59055;BME280;44845;51.444;7.460;2024-03-08T02:12:35;99855.19;;;3.32;64.80
59055;BME280;44845;51.444;7.460;2024-03-08T02:15:01;99845.81;;;3.38;64.47
59055;BME280;44845;51.444;7.460;2024-03-08T02:17:26;99850.22;;;3.44;64.33
59055;BME280;44845;51.444;7.460;2024-03-08T02:19:52;99849.31;;;3.42;64.90
59055;BME280;44845;51.444;7.460;2024-03-08T02:22:18;99849.41;;;3.47;64.58
59055;BME280;44845;51.444;7.460;2024-03-08T02:24:43;99840.72;;;3.43;64.02
59055;BME280;44845;51.444;7.460;2024-03-08T02:27:09;99844.47;;;3.16;64.87
59055;BME280;44845;51.444;7.460;2024-03-08T02:29:37;99837.03;;;3.32;65.47
59055;BME280;44845;51.444;7.460;2024-03-08T02:32:02;99834.44;;;3.32;64.76
59055;BME280;44845;51.444;7.460;2024-03-08T02:34:28;99827.59;;;3.37;64.68
59055;BME280;44845;51.444;7.460;2024-03-08T02:36:54;99835.47;;;3.40;64.71
59055;BME280;44845;51.444;7.460;2024-03-08T02:39:21;99832.69;;;3.31;64.40
59055;BME280;44845;51.444;7.460;2024-03-08T02:41:47;99832.28;;;3.12;64.95
59055;BME280;44845;51.444;7.460;2024-03-08T02:44:13;99828.97;;;3.19;65.28
59055;BME280;44845;51.444;7.460;2024-03-08T02:46:38;99830.97;;;3.33;65.27
59055;BME280;44845;51.444;7.460;2024-03-08T02:49:03;99822.19;;;3.24;65.56
59055;BME280;44845;51.444;7.460;2024-03-08T02:51:29;99824.91;;;3.31;64.69
59055;BME280;44845;51.444;7.460;2024-03-08T02:53:54;99822.22;;;3.28;65.30
59055;BME280;44845;51.444;7.460;2024-03-08T02:56:20;99821.13;;;3.16;64.84
59055;BME280;44845;51.444;7.460;2024-03-08T02:58:47;99820.53;;;3.30;65.12
59055;BME280;44845;51.444;7.460;2024-03-08T03:01:14;99815.69;;;3.45;64.80
59055;BME280;44845;51.444;7.460;2024-03-08T03:03:40;99806.28;;;3.49;64.52
59055;BME280;44845;51.444;7.460;2024-03-08T03:06:06;99813.09;;;3.44;65.03
59055;BME280;44845;51.444;7.460;2024-03-08T03:08:32;99807.13;;;3.49;65.20
59055;BME280;44845;51.444;7.460;2024-03-08T03:10:57;99808.72;;;3.43;65.16
59055;BME280;44845;51.444;7.460;2024-03-08T03:13:23;99800.78;;;3.35;65.86
59055;BME280;44845;51.444;7.460;2024-03-08T03:15:48;99801.94;;;3.49;64.58
59055;BME280;44845;51.444;7.460;2024-03-08T03:18:14;99794.88;;;3.42;65.39
59055;BME280;44845;51.444;7.460;2024-03-08T03:20:40;99794.13;;;3.48;65.32
59055;BME280;44845;51.444;7.460;2024-03-08T03:23:08;99787.06;;;3.41;65.66
59055;BME280;44845;51.444;7.460;2024-03-08T03:25:34;99792.88;;;3.29;66.09
59055;BME280;44845;51.444;7.460;2024-03-08T03:28:03;99782.69;;;3.38;65.30
59055;BME280;44845;51.444;7.460;2024-03-08T03:30:30;99786.72;;;3.23;66.00
59055;BME280;44845;51.444;7.460;2024-03-08T03:33:01;99781.66;;;3.30;65.71
59055;BME280;44845;51.444;7.460;2024-03-08T03:35:31;99770.47;;;3.31;65.19
59055;BME280;44845;51.444;7.460;2024-03-08T03:37:57;99775.31;;;3.15;65.80
59055;BME280;44845;51.444;7.460;2024-03-08T03:40:35;99776.34;;;3.22;65.77
59055;BME280;44845;51.444;7.460;2024-03-08T03:43:01;99771.97;;;3.19;66.46
59055;BME280;44845;51.444;7.460;2024-03-08T03:45:28;99765.09;;;3.21;66.49
59055;BME280;44845;51.444;7.460;2024-03-08T03:47:53;99776.34;;;3.22;66.06
59055;BME280;44845;51.444;7.460;2024-03-08T03:50:19;99769.13;;;3.08;65.82
59055;BME280;44845;51.444;7.460;2024-03-08T03:52:48;99768.06;;;2.98;66.75
59055;BME280;44845;51.444;7.460;2024-03-08T03:55:14;99777.63;;;3.02;65.77
59055;BME280;44845;51.444;7.460;2024-03-08T03:57:39;99769.84;;;3.02;66.29
59055;BME280;44845;51.444;7.460;2024-03-08T04:00:06;99769.81;;;2.99;66.32
59055;BME280;44845;51.444;7.460;2024-03-08T04:02:36;99769.81;;;2.99;66.61
59055;BME280;44845;51.444;7.460;2024-03-08T04:05:01;99760.88;;;2.85;67.15
59055;BME280;44845;51.444;7.460;2024-03-08T04:07:27;99755.16;;;3.01;66.34
59055;BME280;44845;51.444;7.460;2024-03-08T04:09:52;99761.78;;;2.88;67.52
59055;BME280;44845;51.444;7.460;2024-03-08T04:12:18;99763.72;;;2.97;66.84
59055;BME280;44845;51.444;7.460;2024-03-08T04:14:43;99760.97;;;2.91;66.85
59055;BME280;44845;51.444;7.460;2024-03-08T04:17:09;99761.78;;;2.88;66.44
59055;BME280;44845;51.444;7.460;2024-03-08T04:19:36;99755.09;;;2.98;66.60
59055;BME280;44845;51.444;7.460;2024-03-08T04:22:01;99756.66;;;2.90;66.69
59055;BME280;44845;51.444;7.460;2024-03-08T04:24:27;99751.53;;;2.93;66.69
59055;BME280;44845;51.444;7.460;2024-03-08T04:26:52;99751.59;;;2.96;66.71
59055;BME280;44845;51.444;7.460;2024-03-08T04:29:18;99754.13;;;2.93;66.13
59055;BME280;44845;51.444;7.460;2024-03-08T04:31:43;99755.81;;;2.91;66.08
59055;BME280;44845;51.444;7.460;2024-03-08T04:34:09;99745.38;;;2.88;66.24
59055;BME280;44845;51.444;7.460;2024-03-08T04:36:35;99746.06;;;2.80;67.47
59055;BME280;44845;51.444;7.460;2024-03-08T04:39:00;99746.94;;;2.79;66.61
59055;BME280;44845;51.444;7.460;2024-03-08T04:41:25;99741.94;;;2.89;67.22
59055;BME280;44845;51.444;7.460;2024-03-08T04:43:51;99745.38;;;2.88;67.03
59055;BME280;44845;51.444;7.460;2024-03-08T04:46:17;99741.53;;;2.70;67.52
59055;BME280;44845;51.444;7.460;2024-03-08T04:48:43;99737.44;;;2.80;67.49
59055;BME280;44845;51.444;7.460;2024-03-08T04:51:08;99737.44;;;2.80;67.60
59055;BME280;44845;51.444;7.460;2024-03-08T04:53:34;99732.91;;;2.71;67.88
59055;BME280;44845;51.444;7.460;2024-03-08T04:56:00;99737.19;;;2.69;68.32
59055;BME280;44845;51.444;7.460;2024-03-08T04:58:25;99732.28;;;2.81;67.69
59055;BME280;44845;51.444;7.460;2024-03-08T05:00:51;99735.41;;;2.66;67.63
59055;BME280;44845;51.444;7.460;2024-03-08T05:03:16;99725.13;;;2.69;67.31
59055;BME280;44845;51.444;7.460;2024-03-08T05:05:41;99726.22;;;2.79;67.19
59055;BME280;44845;51.444;7.460;2024-03-08T05:08:07;99725.84;;;2.64;67.96
59055;BME280;44845;51.444;7.460;2024-03-08T05:10:32;99716.38;;;2.64;67.76
59055;BME280;44845;51.444;7.460;2024-03-08T05:12:58;99729.50;;;2.72;67.29
59055;BME280;44845;51.444;7.460;2024-03-08T05:15:23;99722.56;;;2.71;66.88
59055;BME280;44845;51.444;7.460;2024-03-08T05:17:48;99716.44;;;2.67;67.72
59055;BME280;44845;51.444;7.460;2024-03-08T05:20:15;99717.38;;;2.71;67.41
59055;BME280;44845;51.444;7.460;2024-03-08T05:22:41;99715.56;;;2.67;67.60
59055;BME280;44845;51.444;7.460;2024-03-08T05:25:06;99710.50;;;2.73;67.66
59055;BME280;44845;51.444;7.460;2024-03-08T05:27:34;99717.09;;;2.58;68.57
59055;BME280;44845;51.444;7.460;2024-03-08T05:29:59;99714.66;;;2.65;67.78
59055;BME280;44845;51.444;7.460;2024-03-08T05:32:25;99712.97;;;2.67;67.89
59055;BME280;44845;51.444;7.460;2024-03-08T05:34:50;99710.38;;;2.67;67.60
59055;BME280;44845;51.444;7.460;2024-03-08T05:37:15;99710.47;;;2.70;68.11
59055;BME280;44845;51.444;7.460;2024-03-08T05:39:41;99712.19;;;2.71;67.58
59055;BME280;44845;51.444;7.460;2024-03-08T05:42:06;99706.84;;;2.63;67.58
59055;BME280;44845;51.444;7.460;2024-03-08T05:44:34;99700.13;;;2.70;67.77
59055;BME280;44845;51.444;7.460;2024-03-08T05:46:59;99698.41;;;2.72;67.53
59055;BME280;44845;51.444;7.460;2024-03-08T05:49:24;99701.09;;;2.75;67.46
59055;BME280;44845;51.444;7.460;2024-03-08T05:51:50;99707.78;;;2.65;66.91
59055;BME280;44845;51.444;7.460;2024-03-08T05:54:16;99707.81;;;2.67;67.35
59055;BME280;44845;51.444;7.460;2024-03-08T05:56:42;99701.91;;;2.74;67.58
59055;BME280;44845;51.444;7.460;2024-03-08T05:59:08;99707.16;;;2.77;67.16
59055;BME280;44845;51.444;7.460;2024-03-08T06:01:34;99702.03;;;2.80;67.09
59055;BME280;44845;51.444;7.460;2024-03-08T06:04:02;99714.16;;;2.81;68.05
59055;BME280;44845;51.444;7.460;2024-03-08T06:06:27;99694.22;;;2.77;67.52
59055;BME280;44845;51.444;7.460;2024-03-08T06:08:53;99703.72;;;2.78;67.38
59055;BME280;44845;51.444;7.460;2024-03-08T06:11:19;99700.38;;;2.83;67.16
59055;BME280;44845;51.444;7.460;2024-03-08T06:13:48;99704.78;;;2.87;66.95
59055;BME280;44845;51.444;7.460;2024-03-08T06:16:15;99702.31;;;2.93;67.17
59055;BME280;44845;51.444;7.460;2024-03-08T06:18:40;99697.13;;;2.93;66.44
59055;BME280;44845;51.444;7.460;2024-03-08T06:21:06;99695.31;;;2.89;67.05
59055;BME280;44845;51.444;7.460;2024-03-08T06:23:32;99699.78;;;2.96;66.88
59055;BME280;44845;51.444;7.460;2024-03-08T06:25:58;99702.84;;;2.78;68.13
59055;BME280;44845;51.444;7.460;2024-03-08T06:28:23;99693.44;;;2.81;67.71
59055;BME280;44845;51.444;7.460;2024-03-08T06:30:49;99700.22;;;2.76;67.79
59055;BME280;44845;51.444;7.460;2024-03-08T06:33:16;99697.22;;;2.98;66.84
59055;BME280;44845;51.444;7.460;2024-03-08T06:35:41;99704.78;;;2.87;67.71
59055;BME280;44845;51.444;7.460;2024-03-08T06:38:06;99703.81;;;2.83;67.61
59055;BME280;44845;51.444;7.460;2024-03-08T06:40:32;99699.88;;;3.01;66.86
59055;BME280;44845;51.444;7.460;2024-03-08T06:42:57;99697.13;;;2.93;67.38
59055;BME280;44845;51.444;7.460;2024-03-08T06:45:23;99698.81;;;2.91;67.40
59055;BME280;44845;51.444;7.460;2024-03-08T06:47:49;99695.38;;;2.92;67.86
59055;BME280;44845;51.444;7.460;2024-03-08T06:50:15;99698.16;;;3.01;67.09
59055;BME280;44845;51.444;7.460;2024-03-08T06:52:43;99701.50;;;2.96;68.28
59055;BME280;44845;51.444;7.460;2024-03-08T06:55:09;99704.41;;;3.11;67.20
59055;BME280;44845;51.444;7.460;2024-03-08T06:57:40;99702.66;;;3.10;67.82
59055;BME280;44845;51.444;7.460;2024-03-08T07:00:07;99705.69;;;2.89;68.89
59055;BME280;44845;51.444;7.460;2024-03-08T07:02:35;99699.00;;;3.00;68.29
59055;BME280;44845;51.444;7.460;2024-03-08T07:05:01;99705.25;;;3.10;68.34
59055;BME280;44845;51.444;7.460;2024-03-08T07:07:26;99702.56;;;3.06;68.52
59055;BME280;44845;51.444;7.460;2024-03-08T07:09:52;99702.75;;;3.15;68.39
59055;BME280;44845;51.444;7.460;2024-03-08T07:12:17;99699.13;;;3.07;68.29
59055;BME280;44845;51.444;7.460;2024-03-08T07:14:42;99698.47;;;3.17;68.13
59055;BME280;44845;51.444;7.460;2024-03-08T07:17:11;99697.56;;;3.15;68.36
59055;BME280;44845;51.444;7.460;2024-03-08T07:19:36;99695.94;;;3.20;68.56
59055;BME280;44845;51.444;7.460;2024-03-08T07:22:04;99693.41;;;3.22;68.76
59055;BME280;44845;51.444;7.460;2024-03-08T07:24:29;99699.38;;;3.19;68.50
59055;BME280;44845;51.444;7.460;2024-03-08T07:27:04;99691.88;;;3.33;67.97
59055;BME280;44845;51.444;7.460;2024-03-08T07:29:30;99687.50;;;3.31;68.68
59055;BME280;44845;51.444;7.460;2024-03-08T07:31:55;99697.28;;;3.46;68.13
59055;BME280;44845;51.444;7.460;2024-03-08T07:34:29;99690.44;;;3.49;68.34
59055;BME280;44845;51.444;7.460;2024-03-08T07:36:57;99690.03;;;3.28;66.77
59055;BME280;44845;51.444;7.460;2024-03-08T07:39:23;99681.81;;;3.49;67.58
59055;BME280;44845;51.444;7.460;2024-03-08T07:41:49;99680.94;;;3.48;68.45
59055;BME280;44845;51.444;7.460;2024-03-08T07:44:14;99678.34;;;3.50;66.61
59055;BME280;44845;51.444;7.460;2024-03-08T07:46:40;99682.63;;;3.46;67.04
59055;BME280;44845;51.444;7.460;2024-03-08T07:49:06;99675.09;;;3.60;67.51
59055;BME280;44845;51.444;7.460;2024-03-08T07:51:31;99678.75;;;3.74;66.29
59055;BME280;44845;51.444;7.460;2024-03-08T07:53:58;99679.28;;;3.54;65.83
59055;BME280;44845;51.444;7.460;2024-03-08T07:56:23;99677.03;;;3.74;66.83
59055;BME280;44845;51.444;7.460;2024-03-08T07:58:50;99672.94;;;3.87;66.05
59055;BME280;44845;51.444;7.460;2024-03-08T08:01:18;99665.81;;;3.75;65.90
59055;BME280;44845;51.444;7.460;2024-03-08T08:03:45;99659.16;;;3.91;66.69
59055;BME280;44845;51.444;7.460;2024-03-08T08:06:10;99660.78;;;3.86;65.46
59055;BME280;44845;51.444;7.460;2024-03-08T08:08:41;99658.47;;;3.51;66.37
59055;BME280;44845;51.444;7.460;2024-03-08T08:11:06;99662.47;;;3.33;66.47
59055;BME280;44845;51.444;7.460;2024-03-08T08:13:34;99659.06;;;3.34;66.71
59055;BME280;44845;51.444;7.460;2024-03-08T08:16:00;99652.19;;;3.37;66.77
59055;BME280;44845;51.444;7.460;2024-03-08T08:18:25;99653.28;;;3.51;66.13
59055;BME280;44845;51.444;7.460;2024-03-08T08:20:51;99642.47;;;3.25;66.53
59055;BME280;44845;51.444;7.460;2024-03-08T08:23:17;99644.25;;;3.30;66.95
59055;BME280;44845;51.444;7.460;2024-03-08T08:25:44;99645.94;;;3.24;66.92
59055;BME280;44845;51.444;7.460;2024-03-08T08:28:10;99638.97;;;3.22;67.56
59055;BME280;44845;51.444;7.460;2024-03-08T08:30:35;99637.06;;;3.13;67.74
59055;BME280;44845;51.444;7.460;2024-03-08T08:33:00;99637.13;;;3.18;67.78
59055;BME280;44845;51.444;7.460;2024-03-08T08:35:26;99635.44;;;3.18;67.53
59055;BME280;44845;51.444;7.460;2024-03-08T08:37:51;99626.81;;;3.19;67.37
59055;BME280;44845;51.444;7.460;2024-03-08T08:40:17;99630.38;;;3.26;67.04
59055;BME280;44845;51.444;7.460;2024-03-08T08:42:44;99634.03;;;3.36;67.50
59055;BME280;44845;51.444;7.460;2024-03-08T08:45:10;99630.38;;;3.26;66.86
59055;BME280;44845;51.444;7.460;2024-03-08T08:47:36;99628.78;;;3.33;67.22
59055;BME280;44845;51.444;7.460;2024-03-08T08:50:03;99621.31;;;3.50;67.07
59055;BME280;44845;51.444;7.460;2024-03-08T08:52:32;99620.41;;;3.49;66.85
59055;BME280;44845;51.444;7.460;2024-03-08T08:54:58;99620.31;;;3.43;66.44
59055;BME280;44845;51.444;7.460;2024-03-08T08:57:23;99615.28;;;3.53;66.96
59055;BME280;44845;51.444;7.460;2024-03-08T08:59:49;99610.91;;;3.48;66.88
59055;BME280;44845;51.444;7.460;2024-03-08T09:02:15;99608.53;;;3.61;67.00
59055;BME280;44845;51.444;7.460;2024-03-08T09:04:42;99601.59;;;3.60;66.85
59055;BME280;44845;51.444;7.460;2024-03-08T09:07:07;99601.59;;;3.60;66.59
59055;BME280;44845;51.444;7.460;2024-03-08T09:09:32;99602.38;;;3.56;66.99
59055;BME280;44845;51.444;7.460;2024-03-08T09:11:58;99597.28;;;3.62;66.41
59055;BME280;44845;51.444;7.460;2024-03-08T09:14:23;99591.13;;;3.54;66.37
59055;BME280;44845;51.444;7.460;2024-03-08T09:16:51;99584.31;;;3.62;67.04
59055;BME280;44845;51.444;7.460;2024-03-08T09:19:16;99584.53;;;3.75;66.59
59055;BME280;44845;51.444;7.460;2024-03-08T09:21:42;99584.59;;;3.78;66.32
59055;BME280;44845;51.444;7.460;2024-03-08T09:24:07;99574.97;;;3.70;66.88
59055;BME280;44845;51.444;7.460;2024-03-08T09:26:33;99577.63;;;3.77;66.56
59055;BME280;44845;51.444;7.460;2024-03-08T09:28:59;99579.53;;;3.87;67.09
59055;BME280;44845;51.444;7.460;2024-03-08T09:31:24;99570.19;;;3.99;66.22
59055;BME280;44845;51.444;7.460;2024-03-08T09:33:51;99562.63;;;4.14;66.31
59055;BME280;44845;51.444;7.460;2024-03-08T09:36:17;99563.63;;;4.24;65.90
59055;BME280;44845;51.444;7.460;2024-03-08T09:38:42;99560.19;;;4.28;65.78
59055;BME280;44845;51.444;7.460;2024-03-08T09:41:07;99554.28;;;4.37;65.70
59055;BME280;44845;51.444;7.460;2024-03-08T09:43:35;99555.16;;;4.39;65.45
59055;BME280;44845;51.444;7.460;2024-03-08T09:46:02;99545.75;;;4.49;65.31
59055;BME280;44845;51.444;7.460;2024-03-08T09:48:29;99531.03;;;4.48;66.00
59055;BME280;44845;51.444;7.460;2024-03-08T09:50:54;99537.03;;;4.46;66.04
59055;BME280;44845;51.444;7.460;2024-03-08T09:53:20;99528.56;;;4.62;66.55
59055;BME280;44845;51.444;7.460;2024-03-08T09:55:47;99517.16;;;4.48;65.61
59055;BME280;44845;51.444;7.460;2024-03-08T09:58:15;99521.34;;;4.36;66.43
59055;BME280;44845;51.444;7.460;2024-03-08T10:00:42;99524.94;;;4.45;65.91
59055;BME280;44845;51.444;7.460;2024-03-08T10:03:08;99511.81;;;4.35;66.63
59055;BME280;44845;51.444;7.460;2024-03-08T10:05:34;99501.63;;;4.51;67.01
59055;BME280;44845;51.444;7.460;2024-03-08T10:07:59;99500.97;;;4.69;65.69
59055;BME280;44845;51.444;7.460;2024-03-08T10:10:25;99494.09;;;4.79;66.00
59055;BME280;44845;51.444;7.460;2024-03-08T10:12:50;99495.94;;;4.87;65.31
59055;BME280;44845;51.444;7.460;2024-03-08T10:15:16;99490.75;;;4.90;65.82
59055;BME280;44845;51.444;7.460;2024-03-08T10:17:42;99494.22;;;4.92;65.70
59055;BME280;44845;51.444;7.460;2024-03-08T10:20:18;99490.88;;;5.02;64.93
59055;BME280;44845;51.444;7.460;2024-03-08T10:22:44;99483.06;;;5.02;64.80
59055;BME280;44845;51.444;7.460;2024-03-08T10:25:13;99485.75;;;5.09;64.73
59055;BME280;44845;51.444;7.460;2024-03-08T10:27:41;99477.88;;;5.04;64.22
59055;BME280;44845;51.444;7.460;2024-03-08T10:30:16;99475.38;;;5.15;64.66
59055;BME280;44845;51.444;7.460;2024-03-08T10:32:45;99477.97;;;5.13;64.55
59055;BME280;44845;51.444;7.460;2024-03-08T10:35:11;99466.69;;;5.14;64.41
59055;BME280;44845;51.444;7.460;2024-03-08T10:37:44;99468.47;;;5.17;64.21
59055;BME280;44845;51.444;7.460;2024-03-08T10:40:15;99468.44;;;5.14;65.24
59055;BME280;44845;51.444;7.460;2024-03-08T10:45:29;99463.31;;;5.26;65.90
59055;BME280;44845;51.444;7.460;2024-03-08T10:50:48;99455.63;;;5.37;64.11
59055;BME280;44845;51.444;7.460;2024-03-08T10:53:18;99451.28;;;5.41;64.71
59055;BME280;44845;51.444;7.460;2024-03-08T10:55:46;99447.88;;;5.45;65.17
59055;BME280;44845;51.444;7.460;2024-03-08T10:58:12;99445.31;;;5.55;64.77
59055;BME280;44845;51.444;7.460;2024-03-08T11:00:37;99444.47;;;5.59;65.60
59055;BME280;44845;51.444;7.460;2024-03-08T11:03:04;99436.72;;;5.68;64.94
59055;BME280;44845;51.444;7.460;2024-03-08T11:05:40;99430.63;;;5.66;65.36
59055;BME280;44845;51.444;7.460;2024-03-08T11:08:16;99427.25;;;5.83;64.39
59055;BME280;44845;51.444;7.460;2024-03-08T11:10:52;99425.53;;;5.85;64.06
59055;BME280;44845;51.444;7.460;2024-03-08T11:13:41;99418.63;;;5.92;63.94
59055;BME280;44845;51.444;7.460;2024-03-08T11:16:09;99415.16;;;5.97;63.57
59055;BME280;44845;51.444;7.460;2024-03-08T11:18:36;99407.34;;;5.91;64.64
59055;BME280;44845;51.444;7.460;2024-03-08T11:21:08;99404.75;;;5.97;63.99
59055;BME280;44845;51.444;7.460;2024-03-08T11:23:37;99399.53;;;5.97;64.20
59055;BME280;44845;51.444;7.460;2024-03-08T11:26:03;99385.69;;;6.05;63.38
59055;BME280;44845;51.444;7.460;2024-03-08T11:28:32;99385.75;;;6.11;62.75
59055;BME280;44845;51.444;7.460;2024-03-08T11:33:27;99373.66;;;6.49;61.06
59055;BME280;44845;51.444;7.460;2024-03-08T11:38:29;99361.53;;;6.66;60.16
59055;BME280;44845;51.444;7.460;2024-03-08T11:40:56;99367.63;;;6.77;59.15
59055;BME280;44845;51.444;7.460;2024-03-08T11:43:22;99351.09;;;6.80;58.78
59055;BME280;44845;51.444;7.460;2024-03-08T11:45:47;99354.56;;;6.96;57.29
59055;BME280;44845;51.444;7.460;2024-03-08T11:48:13;99348.44;;;7.24;55.38
59055;BME280;44845;51.444;7.460;2024-03-08T11:50:39;99351.06;;;7.22;54.04
59055;BME280;44845;51.444;7.460;2024-03-08T11:53:06;99349.31;;;7.21;55.22
59055;BME280;44845;51.444;7.460;2024-03-08T11:55:32;99332.75;;;7.36;54.44
59055;BME280;44845;51.444;7.460;2024-03-08T11:58:02;99331.00;;;7.43;52.92
59055;BME280;44845;51.444;7.460;2024-03-08T12:00:28;99318.84;;;7.37;53.64
59055;BME280;44845;51.444;7.460;2024-03-08T12:03:05;99316.22;;;7.36;54.58
59055;BME280;44845;51.444;7.460;2024-03-08T12:05:30;99318.78;;;7.54;52.33
59055;BME280;44845;51.444;7.460;2024-03-08T12:08:02;99312.69;;;7.55;52.77
59055;BME280;44845;51.444;7.460;2024-03-08T12:10:28;99305.72;;;7.58;52.79
59055;BME280;44845;51.444;7.460;2024-03-08T12:12:56;99309.16;;;7.69;51.84
59055;BME280;44845;51.444;7.460;2024-03-08T12:15:25;99293.50;;;7.69;51.02
59055;BME280;44845;51.444;7.460;2024-03-08T12:17:53;99294.34;;;7.76;51.73
59055;BME280;44845;51.444;7.460;2024-03-08T12:20:20;99290.00;;;7.70;51.35
59055;BME280;44845;51.444;7.460;2024-03-08T12:22:49;99286.47;;;7.74;50.56
59055;BME280;44845;51.444;7.460;2024-03-08T12:25:17;99289.13;;;7.73;50.90
59055;BME280;44845;51.444;7.460;2024-03-08T12:27:43;99274.28;;;7.83;50.81
59055;BME280;44845;51.444;7.460;2024-03-08T12:30:22;99268.19;;;7.82;51.08
59055;BME280;44845;51.444;7.460;2024-03-08T12:32:53;99262.91;;;7.93;50.40
59055;BME280;44845;51.444;7.460;2024-03-08T12:35:20;99263.75;;;7.95;50.83
59055;BME280;44845;51.444;7.460;2024-03-08T12:37:48;99260.22;;;7.99;49.77
59055;BME280;44845;51.444;7.460;2024-03-08T12:40:14;99249.78;;;7.99;50.26
59055;BME280;44845;51.444;7.460;2024-03-08T12:42:42;99250.69;;;7.97;50.45
59055;BME280;44845;51.444;7.460;2024-03-08T12:45:08;99243.69;;;7.99;50.68
59055;BME280;44845;51.444;7.460;2024-03-08T12:47:35;99238.53;;;7.93;51.51
59055;BME280;44845;51.444;7.460;2024-03-08T12:50:01;99238.47;;;8.00;51.16
59055;BME280;44845;51.444;7.460;2024-03-08T12:52:26;99236.69;;;8.07;50.65
59055;BME280;44845;51.444;7.460;2024-03-08T12:54:51;99225.28;;;8.16;51.22
59055;BME280;44845;51.444;7.460;2024-03-08T12:57:17;99218.31;;;8.17;51.25
59055;BME280;44845;51.444;7.460;2024-03-08T12:59:42;99221.75;;;8.23;49.62
59055;BME280;44845;51.444;7.460;2024-03-08T13:02:08;99216.50;;;8.27;49.37
59055;BME280;44845;51.444;7.460;2024-03-08T13:04:36;99217.44;;;8.19;49.43
59055;BME280;44845;51.444;7.460;2024-03-08T13:07:01;99215.63;;;8.26;49.03
59055;BME280;44845;51.444;7.460;2024-03-08T13:09:27;99213.13;;;8.15;50.86
59055;BME280;44845;51.444;7.460;2024-03-08T13:11:52;99206.19;;;8.11;50.40
59055;BME280;44845;51.444;7.460;2024-03-08T13:14:20;99200.84;;;8.23;49.23
59055;BME280;44845;51.444;7.460;2024-03-08T13:16:46;99199.88;;;8.34;49.48
59055;BME280;44845;51.444;7.460;2024-03-08T13:19:13;99186.81;;;8.34;49.70